createdAt,value
2018-05-31T00:00:14.719Z,99456.86
2018-05-31T00:01:50.058Z,99454.38
2018-05-31T00:03:28.880Z,99453.48
2018-05-31T00:05:05.931Z,99455.63
2018-05-31T00:06:41.256Z,99450.91
2018-05-31T00:08:17.071Z,99458.91
2018-05-31T00:09:52.394Z,99444.62
2018-05-31T00:11:28.331Z,99456.50
2018-05-31T00:13:03.807Z,99449.28
2018-05-31T00:14:38.968Z,99452.00
2018-05-31T00:16:14.059Z,99449.76
2018-05-31T00:17:53.652Z,99446.44
2018-05-31T00:19:28.746Z,99448.56
2018-05-31T00:21:05.379Z,99451.97
2018-05-31T00:22:40.555Z,99443.19
2018-05-31T00:24:15.917Z,99444.06
2018-05-31T00:25:51.906Z,99443.39
2018-05-31T00:27:29.210Z,99440.67
2018-05-31T00:29:04.270Z,99442.27
2018-05-31T00:30:39.417Z,99436.44
2018-05-31T00:33:55.280Z,99436.88
2018-05-31T00:35:30.603Z,99439.41
2018-05-31T00:37:05.706Z,99440.52
2018-05-31T00:38:40.821Z,99440.63
2018-05-31T00:40:15.931Z,99438.92
2018-05-31T00:41:51.790Z,99443.34
2018-05-31T00:43:26.921Z,99446.14
2018-05-31T00:45:02.795Z,99448.84
2018-05-31T00:46:38.098Z,99453.05
2018-05-31T00:48:13.995Z,99449.48
2018-05-31T00:49:49.945Z,99453.55
2018-05-31T00:51:25.419Z,99459.42
2018-05-31T00:53:00.521Z,99459.23
2018-05-31T00:54:35.638Z,99464.09
2018-05-31T00:56:17.735Z,99462.93
2018-05-31T00:57:53.079Z,99470.11
2018-05-31T00:59:29.185Z,99475.29
2018-05-31T01:01:04.605Z,99478.38
2018-05-31T01:02:40.895Z,99476.55
2018-05-31T01:04:16.027Z,99474.19
2018-05-31T01:05:51.172Z,99477.84
2018-05-31T01:07:26.290Z,99470.64
2018-05-31T01:09:01.399Z,99473.59
2018-05-31T01:10:36.740Z,99475.97
2018-05-31T01:12:14.632Z,99478.98
2018-05-31T01:13:49.769Z,99479.03
2018-05-31T01:15:24.931Z,99481.89
2018-05-31T01:17:00.555Z,99483.45
2018-05-31T01:18:35.661Z,99480.52
2018-05-31T01:20:10.743Z,99486.72
2018-05-31T01:21:45.867Z,99485.19
2018-05-31T01:23:20.944Z,99488.14
2018-05-31T01:24:56.069Z,99480.39
2018-05-31T01:26:31.186Z,99480.59
2018-05-31T01:28:06.258Z,99478.75
2018-05-31T01:29:41.358Z,99481.55
2018-05-31T01:31:16.494Z,99478.03
2018-05-31T01:32:51.619Z,99487.98
2018-05-31T01:34:26.720Z,99484.24
2018-05-31T01:36:01.845Z,99483.73
2018-05-31T01:37:36.940Z,99474.67
2018-05-31T01:39:19.792Z,99473.41
2018-05-31T01:41:04.855Z,99480.23
2018-05-31T01:42:39.962Z,99482.86
2018-05-31T01:44:15.147Z,99479.05
2018-05-31T01:45:50.269Z,99477.48
2018-05-31T01:47:25.398Z,99486.48
2018-05-31T01:49:00.491Z,99483.94
2018-05-31T01:50:35.644Z,99495.32
2018-05-31T01:52:11.298Z,99496.00
2018-05-31T01:53:47.216Z,99491.88
2018-05-31T01:55:23.315Z,99490.99
2018-05-31T01:57:01.315Z,99486.49
2018-05-31T02:00:16.580Z,99490.51
2018-05-31T02:01:53.426Z,99482.14
2018-05-31T02:03:28.520Z,99476.38
2018-05-31T02:05:10.459Z,99478.30
2018-05-31T02:06:46.547Z,99469.89
2018-05-31T02:08:22.382Z,99472.63
2018-05-31T02:09:57.956Z,99473.61
2018-05-31T02:11:33.392Z,99474.28
2018-05-31T02:13:10.663Z,99464.30
2018-05-31T02:14:46.291Z,99469.02
2018-05-31T02:16:32.513Z,99460.92
2018-05-31T02:18:08.129Z,99467.73
2018-05-31T02:19:45.967Z,99462.90
2018-05-31T02:21:21.610Z,99467.81
2018-05-31T02:22:56.763Z,99465.58
2018-05-31T02:24:32.585Z,99467.22
2018-05-31T02:26:08.691Z,99469.20
2018-05-31T02:27:45.936Z,99461.50
2018-05-31T02:29:22.696Z,99463.33
2018-05-31T02:30:58.010Z,99469.67
2018-05-31T02:32:36.776Z,99471.77
2018-05-31T02:37:49.099Z,99458.19
2018-05-31T02:42:54.741Z,99453.61
2018-05-31T02:44:34.731Z,99457.02
2018-05-31T02:46:11.737Z,99455.62
2018-05-31T02:47:47.067Z,99458.64
2018-05-31T02:49:22.334Z,99458.79
2018-05-31T02:50:58.184Z,99453.20
2018-05-31T02:52:34.021Z,99458.97
2018-05-31T02:54:09.873Z,99458.03
2018-05-31T02:55:45.766Z,99466.19
2018-05-31T02:57:20.894Z,99466.61
2018-05-31T02:58:55.996Z,99468.11
2018-05-31T03:00:31.115Z,99467.53
2018-05-31T03:02:07.111Z,99470.34
2018-05-31T03:03:43.207Z,99466.55
2018-05-31T03:05:18.592Z,99473.30
2018-05-31T03:06:53.722Z,99477.84
2018-05-31T03:08:28.810Z,99478.25
2018-05-31T03:10:03.894Z,99472.06
2018-05-31T03:11:39.001Z,99473.23
2018-05-31T03:13:14.130Z,99465.23
2018-05-31T03:14:49.992Z,99464.34
2018-05-31T03:16:25.587Z,99465.43
2018-05-31T03:18:00.762Z,99470.00
2018-05-31T03:19:36.853Z,99471.48
2018-05-31T03:21:11.943Z,99466.80
2018-05-31T03:22:47.066Z,99471.70
2018-05-31T03:24:22.169Z,99475.37
2018-05-31T03:25:57.278Z,99476.13
2018-05-31T03:27:32.392Z,99471.12
2018-05-31T03:29:08.253Z,99469.06
2018-05-31T03:30:44.112Z,99472.83
2018-05-31T03:32:19.243Z,99475.73
2018-05-31T03:33:55.177Z,99471.07
2018-05-31T03:35:30.670Z,99469.39
2018-05-31T03:37:06.126Z,99473.72
2018-05-31T03:38:42.344Z,99469.18
2018-05-31T03:40:17.683Z,99469.13
2018-05-31T03:41:53.758Z,99472.28
2018-05-31T03:43:28.918Z,99469.93
2018-05-31T03:45:04.469Z,99472.05
2018-05-31T03:46:39.788Z,99476.62
2018-05-31T03:48:15.368Z,99478.56
2018-05-31T03:49:50.659Z,99476.09
2018-05-31T03:51:26.096Z,99474.56
2018-05-31T03:53:02.216Z,99474.61
2018-05-31T03:54:43.288Z,99474.67
2018-05-31T03:56:26.310Z,99473.08
2018-05-31T04:04:59.001Z,99468.81
2018-05-31T04:06:34.076Z,99466.98
2018-05-31T04:08:09.192Z,99462.82
2018-05-31T04:09:44.299Z,99457.21
2018-05-31T04:11:27.472Z,99466.77
2018-05-31T04:13:03.417Z,99458.62
2018-05-31T04:14:38.516Z,99461.88
2018-05-31T04:16:13.662Z,99459.05
2018-05-31T04:17:49.738Z,99451.71
2018-05-31T04:19:24.942Z,99449.36
2018-05-31T04:21:00.081Z,99453.01
2018-05-31T04:22:35.173Z,99456.65
2018-05-31T04:24:10.273Z,99456.22
2018-05-31T04:25:45.443Z,99457.16
2018-05-31T04:27:21.654Z,99453.63
2018-05-31T04:28:57.512Z,99449.40
2018-05-31T04:30:33.002Z,99449.83
2018-05-31T04:32:08.152Z,99445.06
2018-05-31T04:33:43.324Z,99445.54
2018-05-31T04:35:19.560Z,99448.84
2018-05-31T04:36:54.709Z,99446.43
2018-05-31T04:38:30.391Z,99442.53
2018-05-31T04:40:06.240Z,99445.91
2018-05-31T04:41:41.346Z,99446.56
2018-05-31T04:43:17.222Z,99445.17
2018-05-31T04:45:09.931Z,99448.77
2018-05-31T04:46:53.094Z,99445.89
2018-05-31T04:48:29.099Z,99450.52
2018-05-31T04:50:07.034Z,99446.63
2018-05-31T04:51:43.141Z,99447.88
2018-05-31T04:53:18.256Z,99450.88
2018-05-31T04:54:54.098Z,99455.01
2018-05-31T04:56:29.220Z,99457.81
2018-05-31T04:58:04.370Z,99453.81
2018-05-31T04:59:39.558Z,99458.98
2018-05-31T05:01:14.903Z,99454.61
2018-05-31T05:02:50.843Z,99454.10
2018-05-31T05:04:26.013Z,99456.41
2018-05-31T05:06:01.170Z,99462.24
2018-05-31T05:07:36.350Z,99461.59
2018-05-31T05:09:11.465Z,99459.48
2018-05-31T05:10:47.315Z,99460.89
2018-05-31T05:12:24.461Z,99461.56
2018-05-31T05:13:59.571Z,99464.81
2018-05-31T05:15:36.870Z,99455.62
2018-05-31T05:17:11.976Z,99454.77
2018-05-31T05:18:47.169Z,99449.49
2018-05-31T05:20:24.238Z,99457.75
2018-05-31T05:21:59.327Z,99454.97
2018-05-31T05:23:34.527Z,99454.98
2018-05-31T05:27:11.208Z,99452.97
2018-05-31T05:28:46.315Z,99464.55
2018-05-31T05:30:22.915Z,99457.03
2018-05-31T05:31:58.045Z,99456.53
2018-05-31T05:33:33.159Z,99464.97
2018-05-31T05:35:08.234Z,99464.45
2018-05-31T05:36:43.352Z,99463.84
2018-05-31T05:38:18.452Z,99457.73
2018-05-31T05:39:53.536Z,99455.83
2018-05-31T05:41:28.649Z,99452.28
2018-05-31T05:43:04.709Z,99453.53
2018-05-31T05:44:39.807Z,99459.13
2018-05-31T05:46:14.887Z,99459.13
2018-05-31T05:47:49.986Z,99463.77
2018-05-31T05:49:25.144Z,99467.20
2018-05-31T05:51:01.061Z,99459.06
2018-05-31T05:52:36.156Z,99455.66
2018-05-31T05:54:11.274Z,99461.09
2018-05-31T05:55:46.399Z,99457.79
2018-05-31T05:57:24.252Z,99452.98
2018-05-31T05:58:59.325Z,99462.86
2018-05-31T06:00:34.521Z,99458.92
2018-05-31T06:02:09.642Z,99455.82
2018-05-31T06:03:44.736Z,99457.20
2018-05-31T06:05:19.832Z,99457.36
2018-05-31T06:06:55.003Z,99457.70
2018-05-31T06:08:30.091Z,99462.90
2018-05-31T06:10:05.486Z,99465.03
2018-05-31T06:11:40.554Z,99464.69
2018-05-31T06:13:16.457Z,99461.61
2018-05-31T06:14:52.017Z,99463.50
2018-05-31T06:16:27.157Z,99463.70
2018-05-31T06:18:03.200Z,99465.52
2018-05-31T06:19:39.100Z,99466.30
2018-05-31T06:21:14.312Z,99465.48
2018-05-31T06:22:50.168Z,99462.80
2018-05-31T06:24:25.294Z,99464.45
2018-05-31T06:26:02.964Z,99467.34
2018-05-31T06:27:38.102Z,99467.98
2018-05-31T06:29:13.957Z,99471.20
2018-05-31T06:30:49.858Z,99471.59
2018-05-31T06:32:24.946Z,99473.30
2018-05-31T06:34:00.045Z,99462.93
2018-05-31T06:35:37.714Z,99468.88
2018-05-31T06:37:12.876Z,99470.02
2018-05-31T06:38:47.943Z,99467.41
2018-05-31T06:40:23.021Z,99467.37
2018-05-31T06:41:58.101Z,99468.88
2018-05-31T06:43:33.214Z,99467.45
2018-05-31T06:45:08.294Z,99461.30
2018-05-31T06:46:43.440Z,99470.64
2018-05-31T06:48:18.745Z,99474.84
2018-05-31T06:49:53.827Z,99469.69
2018-05-31T06:51:29.681Z,99468.42
2018-05-31T06:53:04.835Z,99469.56
2018-05-31T06:54:39.914Z,99464.83
2018-05-31T06:56:15.007Z,99462.72
2018-05-31T06:57:50.093Z,99463.77
2018-05-31T06:59:25.202Z,99464.27
2018-05-31T07:01:00.308Z,99469.80
2018-05-31T07:02:35.391Z,99462.11
2018-05-31T07:04:10.521Z,99464.30
2018-05-31T07:05:45.641Z,99470.09
2018-05-31T07:07:21.095Z,99472.28
2018-05-31T07:08:56.165Z,99464.80
2018-05-31T07:10:31.275Z,99467.87
2018-05-31T07:12:06.355Z,99470.19
2018-05-31T07:13:42.267Z,99473.67
2018-05-31T07:15:17.361Z,99469.53
2018-05-31T07:19:05.521Z,99471.12
2018-05-31T07:20:41.851Z,99470.90
2018-05-31T07:22:18.632Z,99471.27
2018-05-31T07:23:54.530Z,99475.13
2018-05-31T07:25:29.775Z,99469.02
2018-05-31T07:27:15.373Z,99468.97
2018-05-31T07:28:54.522Z,99467.45
2018-05-31T07:30:29.889Z,99464.35
2018-05-31T07:32:05.095Z,99465.34
2018-05-31T07:33:40.527Z,99465.59
2018-05-31T07:35:27.833Z,99460.84
2018-05-31T07:37:02.973Z,99465.14
2018-05-31T07:38:38.156Z,99474.59
2018-05-31T07:40:14.966Z,99474.34
2018-05-31T07:41:55.582Z,99478.55
2018-05-31T07:43:30.695Z,99476.53
2018-05-31T07:45:06.780Z,99483.67
2018-05-31T07:46:43.831Z,99484.57
2018-05-31T07:48:19.732Z,99485.66
2018-05-31T07:50:00.885Z,99484.94
2018-05-31T07:51:36.083Z,99478.04
2018-05-31T07:53:13.659Z,99487.09
2018-05-31T07:54:48.855Z,99476.53
2018-05-31T07:56:24.012Z,99479.01
2018-05-31T07:57:59.232Z,99478.75
2018-05-31T07:59:34.342Z,99478.14
2018-05-31T08:01:09.522Z,99480.55
2018-05-31T08:02:44.714Z,99482.44
2018-05-31T08:04:20.629Z,99477.58
2018-05-31T08:06:03.120Z,99475.95
2018-05-31T08:07:38.204Z,99477.21
2018-05-31T08:09:13.323Z,99476.06
2018-05-31T08:10:48.566Z,99482.27
2018-05-31T08:12:24.610Z,99476.81
2018-05-31T08:13:59.709Z,99479.58
2018-05-31T08:15:34.825Z,99483.11
2018-05-31T08:17:09.978Z,99480.19
2018-05-31T08:18:46.719Z,99485.77
2018-05-31T08:20:21.788Z,99496.30
2018-05-31T08:21:56.963Z,99487.94
2018-05-31T08:23:32.053Z,99483.22
2018-05-31T08:25:07.293Z,99486.67
2018-05-31T08:26:43.582Z,99487.25
2018-05-31T08:28:19.418Z,99489.49
2018-05-31T08:29:55.446Z,99491.95
2018-05-31T08:31:31.459Z,99496.80
2018-05-31T08:33:06.566Z,99493.31
2018-05-31T08:34:41.681Z,99492.92
2018-05-31T08:36:16.788Z,99487.96
2018-05-31T08:37:52.759Z,99493.44
2018-05-31T08:39:28.704Z,99485.48
2018-05-31T08:41:03.871Z,99485.80
2018-05-31T08:42:39.046Z,99494.44
2018-05-31T08:44:14.927Z,99486.42
2018-05-31T08:45:50.081Z,99482.29
2018-05-31T08:47:25.969Z,99487.88
2018-05-31T08:49:01.059Z,99485.38
2018-05-31T08:53:05.221Z,99485.63
2018-05-31T08:54:46.781Z,99490.61
2018-05-31T08:56:27.353Z,99490.22
2018-05-31T08:58:01.798Z,99487.28
2018-05-31T08:59:36.927Z,99488.63
2018-05-31T09:01:12.026Z,99489.50
2018-05-31T09:02:47.190Z,99492.22
2018-05-31T09:04:23.128Z,99490.21
2018-05-31T09:05:58.217Z,99484.39
2018-05-31T09:07:33.320Z,99486.66
2018-05-31T09:09:09.269Z,99479.81
2018-05-31T09:10:44.338Z,99481.85
2018-05-31T09:12:19.470Z,99479.42
2018-05-31T09:13:54.672Z,99482.49
2018-05-31T09:15:31.389Z,99485.27
2018-05-31T09:17:06.556Z,99484.96
2018-05-31T09:18:41.695Z,99485.17
2018-05-31T09:20:16.834Z,99489.69
2018-05-31T09:21:51.955Z,99482.27
2018-05-31T09:28:12.917Z,99479.66
2018-05-31T09:29:48.104Z,99482.39
2018-05-31T09:31:23.349Z,99478.23
2018-05-31T09:32:58.483Z,99475.57
2018-05-31T09:34:36.890Z,99479.45
2018-05-31T09:40:20.330Z,99472.83
2018-05-31T09:42:15.334Z,99475.81
2018-05-31T09:44:02.042Z,99472.72
2018-05-31T09:45:37.212Z,99480.88
2018-05-31T09:47:13.107Z,99478.23
2018-05-31T09:48:50.885Z,99473.03
2018-05-31T09:50:26.247Z,99477.65
2018-05-31T09:52:03.029Z,99473.59
2018-05-31T09:53:38.159Z,99471.02
2018-05-31T09:55:14.649Z,99468.53
2018-05-31T09:58:34.891Z,99472.45
2018-05-31T10:00:13.455Z,99478.34
2018-05-31T10:01:48.765Z,99476.60
2018-05-31T10:03:24.876Z,99473.50
2018-05-31T10:05:00.213Z,99473.58
2018-05-31T10:06:35.315Z,99472.48
2018-05-31T10:08:10.707Z,99472.58
2018-05-31T10:09:46.615Z,99470.36
2018-05-31T10:11:21.947Z,99473.91
2018-05-31T10:12:57.072Z,99463.97
2018-05-31T10:14:32.523Z,99470.52
2018-05-31T10:16:07.651Z,99462.25
2018-05-31T10:17:42.758Z,99462.92
2018-05-31T10:19:17.898Z,99457.23
2018-05-31T10:20:53.316Z,99472.19
2018-05-31T10:22:28.430Z,99464.09
2018-05-31T10:24:03.548Z,99462.35
2018-05-31T10:25:38.677Z,99462.37
2018-05-31T10:27:14.589Z,99451.30
2018-05-31T10:28:49.652Z,99462.48
2018-05-31T10:30:24.763Z,99454.21
2018-05-31T10:31:59.852Z,99455.00
2018-05-31T10:33:34.916Z,99454.06
2018-05-31T10:35:10.359Z,99454.95
2018-05-31T10:36:47.509Z,99451.45
2018-05-31T10:38:22.599Z,99451.04
2018-05-31T10:39:57.730Z,99443.52
2018-05-31T10:41:32.856Z,99446.31
2018-05-31T10:43:07.948Z,99448.97
2018-05-31T10:44:43.032Z,99445.72
2018-05-31T10:46:19.313Z,99442.59
2018-05-31T10:47:54.383Z,99440.12
2018-05-31T10:49:30.684Z,99444.24
2018-05-31T10:51:05.788Z,99446.86
2018-05-31T10:52:41.350Z,99439.04
2018-05-31T10:54:18.235Z,99441.71
2018-05-31T10:55:53.472Z,99436.43
2018-05-31T10:57:29.437Z,99423.52
2018-05-31T10:59:04.556Z,99432.23
2018-05-31T11:00:39.968Z,99429.98
2018-05-31T11:02:15.040Z,99423.82
2018-05-31T11:03:50.195Z,99429.50
2018-05-31T11:05:26.084Z,99427.53
2018-05-31T11:07:01.166Z,99430.18
2018-05-31T11:08:36.660Z,99426.06
2018-05-31T11:10:14.327Z,99427.34
2018-05-31T11:11:49.497Z,99426.08
2018-05-31T11:13:24.633Z,99424.42
2018-05-31T11:14:59.777Z,99413.98
2018-05-31T11:16:36.727Z,99415.50
2018-05-31T11:18:11.831Z,99421.71
2018-05-31T11:21:33.257Z,99419.25
2018-05-31T11:23:12.907Z,99406.32
2018-05-31T11:27:10.629Z,99403.70
2018-05-31T11:46:30.146Z,99388.53
2018-05-31T11:48:09.511Z,99380.05
2018-05-31T11:49:46.008Z,99372.53
2018-05-31T12:00:20.108Z,99377.23
2018-05-31T12:01:57.154Z,99353.68
2018-05-31T12:03:32.602Z,99376.03
2018-05-31T12:10:03.561Z,99379.02
2018-05-31T12:13:21.039Z,99373.12
2018-05-31T12:14:58.727Z,99376.20
2018-05-31T12:16:34.826Z,99371.65
2018-05-31T12:18:10.232Z,99371.96
2018-05-31T12:19:45.630Z,99366.69
2018-05-31T12:21:20.771Z,99361.62
2018-05-31T12:22:57.436Z,99363.17
2018-05-31T12:24:32.587Z,99367.05
2018-05-31T12:26:09.711Z,99357.45
2018-05-31T12:27:45.947Z,99357.76
2018-05-31T12:29:21.995Z,99358.34
2018-05-31T12:31:03.887Z,99354.61
2018-05-31T12:34:18.317Z,99359.03
2018-05-31T12:39:22.098Z,99346.31
2018-05-31T12:40:58.922Z,99350.22
2018-05-31T12:42:34.078Z,99348.55
2018-05-31T12:44:09.583Z,99351.53
2018-05-31T12:45:44.681Z,99352.66
2018-05-31T12:47:24.883Z,99356.36
2018-05-31T12:48:59.995Z,99353.77
2018-05-31T12:50:35.070Z,99349.17
2018-05-31T12:52:14.316Z,99355.80
2018-05-31T12:53:54.207Z,99359.58
2018-05-31T12:55:29.684Z,99363.41
2018-05-31T12:57:07.528Z,99361.58
2018-05-31T13:02:52.897Z,99361.08
2018-05-31T13:04:27.994Z,99370.98
2018-05-31T13:06:06.888Z,99369.08
2018-05-31T13:07:41.851Z,99372.17
2018-05-31T13:09:16.959Z,99364.59
2018-05-31T13:10:52.194Z,99363.76
2018-05-31T13:12:27.338Z,99356.11
2018-05-31T13:14:02.775Z,99357.83
2018-05-31T13:15:39.056Z,99359.23
2018-05-31T13:17:14.143Z,99346.80
2018-05-31T13:18:51.740Z,99349.61
2018-05-31T13:20:27.785Z,99350.70
2018-05-31T13:22:04.326Z,99350.00
2018-05-31T13:23:42.956Z,99350.72
2018-05-31T13:25:22.152Z,99342.86
2018-05-31T13:26:57.633Z,99334.20
2018-05-31T13:30:56.435Z,99341.27
2018-05-31T13:32:32.116Z,99343.67
2018-05-31T13:34:07.299Z,99348.03
2018-05-31T13:37:24.330Z,99359.22
2018-05-31T13:39:03.969Z,99366.50
2018-05-31T13:44:22.172Z,99366.70
2018-05-31T13:45:59.835Z,99370.19
2018-05-31T13:47:35.196Z,99375.41
2018-05-31T13:49:12.816Z,99365.02
2018-05-31T13:54:59.461Z,99366.75
2018-05-31T13:56:35.375Z,99364.16
2018-05-31T13:58:11.304Z,99360.99
2018-05-31T13:59:46.391Z,99357.18
2018-05-31T14:01:21.746Z,99356.13
2018-05-31T14:03:07.325Z,99350.91
2018-05-31T14:04:42.412Z,99349.03
2018-05-31T14:06:17.486Z,99348.03
2018-05-31T14:07:54.121Z,99347.00
2018-05-31T14:09:36.937Z,99350.54
2018-05-31T14:13:37.978Z,99355.02
2018-05-31T14:17:39.968Z,99341.34
2018-05-31T14:21:25.138Z,99329.01
2018-05-31T14:23:12.284Z,99329.39
2018-05-31T14:28:56.514Z,99323.32
2018-05-31T14:30:36.976Z,99318.02
2018-05-31T14:32:18.188Z,99326.08
2018-05-31T14:33:59.174Z,99324.98
2018-05-31T14:35:42.248Z,99325.19
2018-05-31T14:37:27.558Z,99320.47
2018-05-31T14:41:05.664Z,99320.38
2018-05-31T14:42:46.101Z,99319.41
2018-05-31T14:44:26.711Z,99318.05
2018-05-31T14:48:16.769Z,99312.12
2018-05-31T14:49:55.333Z,99312.51
2018-05-31T14:51:39.144Z,99318.06
2018-05-31T14:53:16.286Z,99319.17
2018-05-31T14:54:53.932Z,99322.03
2018-05-31T14:56:31.627Z,99331.41
2018-05-31T14:58:07.612Z,99340.01
2018-05-31T14:59:42.806Z,99336.83
2018-05-31T15:01:18.194Z,99347.71
2018-05-31T15:02:53.411Z,99345.44
2018-05-31T15:04:29.691Z,99342.79
2018-05-31T15:06:05.698Z,99339.83
2018-05-31T15:07:42.199Z,99354.55
2018-05-31T15:09:17.543Z,99352.80
2018-05-31T15:10:52.888Z,99357.73
2018-05-31T15:12:28.816Z,99353.00
2018-05-31T15:14:04.442Z,99350.94
2018-05-31T15:15:40.270Z,99358.98
2018-05-31T15:17:15.524Z,99357.74
2018-05-31T15:18:52.698Z,99365.05
2018-05-31T15:20:28.157Z,99368.48
2018-05-31T15:22:07.189Z,99369.34
2018-05-31T15:23:43.172Z,99364.67
2018-05-31T15:25:19.087Z,99365.19
2018-05-31T15:26:54.676Z,99356.59
2018-05-31T15:28:29.898Z,99354.45
2018-05-31T15:30:11.619Z,99350.32
2018-05-31T15:31:47.069Z,99335.84
2018-05-31T15:33:22.348Z,99322.36
2018-05-31T15:34:59.266Z,99317.87
2018-05-31T15:36:35.348Z,99312.31
2018-05-31T15:38:11.463Z,99307.31
2018-05-31T15:42:01.703Z,99305.25
2018-05-31T15:43:53.759Z,99307.02
2018-05-31T15:45:29.117Z,99315.91
2018-05-31T15:49:42.394Z,99328.41
2018-05-31T15:51:17.586Z,99334.63
2018-05-31T15:52:53.460Z,99336.39
2018-05-31T15:54:28.763Z,99336.10
2018-05-31T15:56:06.793Z,99336.02
2018-05-31T15:57:42.712Z,99339.63
2018-05-31T15:59:17.996Z,99343.75
2018-05-31T16:00:55.499Z,99341.31
2018-05-31T16:02:31.398Z,99339.66
2018-05-31T16:04:07.223Z,99335.53
2018-05-31T16:05:42.539Z,99333.42
2018-05-31T16:07:17.884Z,99333.29
2018-05-31T16:08:53.254Z,99333.45
2018-05-31T16:10:30.284Z,99335.05
2018-05-31T16:12:10.820Z,99342.14
2018-05-31T16:13:46.001Z,99342.31
2018-05-31T16:15:23.408Z,99341.58
2018-05-31T16:16:58.672Z,99350.16
2018-05-31T16:18:34.999Z,99352.16
2018-05-31T16:20:10.215Z,99348.97
2018-05-31T16:21:52.878Z,99253.14
2018-05-31T16:23:32.770Z,99336.86
2018-05-31T16:25:13.410Z,99336.88
2018-05-31T16:26:49.729Z,99332.41
2018-05-31T16:28:25.401Z,99333.19
2018-05-31T16:30:05.241Z,99317.14
2018-05-31T16:33:52.804Z,99330.14
2018-05-31T16:35:28.799Z,99324.87
2018-05-31T16:37:03.929Z,99319.89
2018-05-31T16:38:43.016Z,99327.06
2018-05-31T16:40:18.945Z,99334.54
2018-05-31T16:42:01.273Z,99333.55
2018-05-31T16:43:36.375Z,99336.42
2018-05-31T16:45:11.516Z,99336.05
2018-05-31T16:46:46.651Z,99343.05
2018-05-31T16:48:21.845Z,99345.83
2018-05-31T16:49:57.051Z,99342.28
2018-05-31T16:51:32.944Z,99348.41
2018-05-31T16:53:08.274Z,99341.11
2018-05-31T16:54:43.513Z,99345.42
2018-05-31T16:56:18.658Z,99346.69
2018-05-31T16:57:55.319Z,99347.77
2018-05-31T16:59:30.504Z,99350.19
2018-05-31T17:01:06.186Z,99347.94
2018-05-31T17:02:41.344Z,99345.27
2018-05-31T17:04:16.481Z,99352.14
2018-05-31T17:05:51.585Z,99343.80
2018-05-31T17:07:27.483Z,99340.54
2018-05-31T17:09:02.656Z,99344.91
2018-05-31T17:10:37.768Z,99335.56
2018-05-31T17:12:12.984Z,99327.73
2018-05-31T17:14:13.800Z,99330.55
2018-05-31T17:15:48.923Z,99324.16
2018-05-31T17:17:24.069Z,99325.02
2018-05-31T17:18:59.192Z,99317.61
2018-05-31T17:20:34.368Z,99316.25
2018-05-31T17:22:10.256Z,99317.67
2018-05-31T17:23:45.419Z,99315.69
2018-05-31T17:25:32.156Z,99317.52
2018-05-31T17:27:08.260Z,99318.94
2018-05-31T17:28:43.454Z,99316.95
2018-05-31T17:30:18.653Z,99315.48
2018-05-31T17:31:53.831Z,99320.13
2018-05-31T17:33:46.353Z,99317.92
2018-05-31T17:35:48.668Z,99321.31
2018-05-31T17:37:23.780Z,99329.00
2018-05-31T17:38:59.709Z,99323.00
2018-05-31T17:40:49.258Z,99331.44
2018-05-31T17:42:24.373Z,99329.66
2018-05-31T17:44:00.565Z,99332.71
2018-05-31T17:45:35.691Z,99329.98
2018-05-31T17:47:12.184Z,99326.34
2018-05-31T17:48:48.300Z,99327.95
2018-05-31T17:50:23.513Z,99326.71
2018-05-31T17:51:58.715Z,99329.25
2018-05-31T17:53:34.731Z,99333.32
2018-05-31T17:55:11.966Z,99339.34
2018-05-31T17:56:47.182Z,99340.52
2018-05-31T17:58:22.791Z,99347.45
2018-05-31T18:00:13.313Z,99350.05
2018-05-31T18:01:48.943Z,99356.98
2018-05-31T18:03:25.100Z,99360.18
2018-05-31T18:05:01.408Z,99359.59
2018-05-31T18:06:36.633Z,99363.14
2018-05-31T18:08:12.125Z,99359.67
2018-05-31T18:09:56.280Z,99373.39
2018-05-31T18:11:36.172Z,99377.20
2018-05-31T18:13:16.274Z,99377.19
2018-05-31T18:14:51.462Z,99368.59
2018-05-31T18:16:29.776Z,99369.77
2018-05-31T18:18:04.957Z,99366.83
2018-05-31T18:19:40.136Z,99366.39
2018-05-31T18:21:21.010Z,99354.80
2018-05-31T18:22:56.317Z,99351.45
2018-05-31T18:24:33.560Z,99353.48
2018-05-31T18:41:51.676Z,99350.71
2018-05-31T18:43:33.480Z,99351.73
2018-05-31T18:45:10.630Z,99347.06
2018-05-31T18:46:49.241Z,99343.47
2018-05-31T18:53:20.720Z,99349.62
2018-05-31T18:57:13.542Z,99341.05
2018-05-31T18:58:48.735Z,99337.55
2018-05-31T19:00:23.880Z,99342.49
2018-05-31T19:01:59.670Z,99347.48
2018-05-31T19:03:34.863Z,99349.34
2018-05-31T19:05:10.778Z,99351.52
2018-05-31T19:06:47.748Z,99352.05
2018-05-31T19:08:31.480Z,99352.98
2018-05-31T19:10:06.772Z,99353.38
2018-05-31T19:11:46.489Z,99355.22
2018-05-31T19:13:27.940Z,99363.12
2018-05-31T19:15:03.976Z,99361.32
2018-05-31T19:16:40.969Z,99350.35
2018-05-31T19:18:31.503Z,99375.17
2018-05-31T19:20:06.700Z,99368.16
2018-05-31T19:21:41.807Z,99383.66
2018-05-31T19:23:17.013Z,99379.42
2018-05-31T19:24:57.746Z,99385.21
2018-05-31T19:26:33.624Z,99385.72
2018-05-31T19:28:08.988Z,99391.51
2018-05-31T19:29:44.101Z,99396.27
2018-05-31T19:31:19.226Z,99398.13
2018-05-31T19:32:54.581Z,99404.66
2018-05-31T19:34:29.669Z,99405.28
2018-05-31T19:36:10.287Z,99398.02
2018-05-31T19:37:46.881Z,99401.53
2018-05-31T19:39:22.006Z,99403.98
2018-05-31T19:40:57.763Z,99407.41
2018-05-31T19:42:39.064Z,99401.92
2018-05-31T19:44:19.728Z,99407.05
2018-05-31T19:45:54.798Z,99406.97
2018-05-31T19:47:29.898Z,99408.45
2018-05-31T19:49:06.000Z,99405.31
2018-05-31T19:50:41.839Z,99409.44
2018-05-31T19:52:23.225Z,99405.39
2018-05-31T19:53:58.294Z,99407.16
2018-05-31T19:55:33.411Z,99406.74
2018-05-31T19:57:08.486Z,99410.93
2018-05-31T19:58:49.007Z,99416.13
2018-05-31T20:00:29.562Z,99408.69
2018-05-31T20:02:10.093Z,99410.93
2018-05-31T20:03:45.161Z,99405.82
2018-05-31T20:05:20.283Z,99408.92
2018-05-31T20:06:56.119Z,99407.81
2018-05-31T20:08:31.223Z,99406.77
2018-05-31T20:10:08.950Z,99407.37
2018-05-31T20:11:44.036Z,99404.88
2018-05-31T20:13:19.111Z,99412.95
2018-05-31T20:14:58.932Z,99410.73
2018-05-31T20:16:34.041Z,99421.29
2018-05-31T20:18:09.927Z,99419.98
2018-05-31T20:19:45.043Z,99421.13
2018-05-31T20:21:20.126Z,99425.83
2018-05-31T20:22:55.236Z,99426.84
2018-05-31T20:24:30.357Z,99425.08
2018-05-31T20:26:05.544Z,99427.52
2018-05-31T20:27:41.374Z,99424.31
2018-05-31T20:29:16.475Z,99424.84
2018-05-31T20:30:51.609Z,99425.15
2018-05-31T20:32:26.676Z,99423.79
2018-05-31T20:34:02.960Z,99423.44
2018-05-31T20:35:39.809Z,99426.07
2018-05-31T20:37:19.469Z,99421.42
2018-05-31T20:43:52.424Z,99420.47
2018-05-31T20:45:30.978Z,99419.13
2018-05-31T20:47:08.262Z,99422.05
2018-05-31T20:48:43.439Z,99424.91
2018-05-31T20:50:18.582Z,99420.52
2018-05-31T20:51:54.060Z,99424.72
2018-05-31T20:53:29.957Z,99412.53
2018-05-31T20:55:08.801Z,99422.09
2018-05-31T20:56:44.112Z,99423.11
2018-05-31T20:58:19.670Z,99425.58
2018-05-31T20:59:54.960Z,99425.34
2018-05-31T21:01:30.020Z,99425.05
2018-05-31T21:03:05.132Z,99424.78
2018-05-31T21:04:40.232Z,99431.48
2018-05-31T21:06:15.345Z,99423.31
2018-05-31T21:07:50.694Z,99424.36
2018-05-31T21:09:25.752Z,99425.67
2018-05-31T21:11:00.858Z,99427.17
2018-05-31T21:12:35.926Z,99428.32
2018-05-31T21:14:11.046Z,99436.57
2018-05-31T21:15:46.771Z,99436.94